createdAt,value
2022-11-30T00:01:25.079Z,99116.31
2022-11-30T00:03:56.487Z,99117.85
2022-11-30T00:06:24.827Z,99122.95
2022-11-30T00:08:58.237Z,99129.58
2022-11-30T00:11:27.012Z,99130.40
2022-11-30T00:13:53.863Z,99130.05
2022-11-30T00:16:21.335Z,99127.29
2022-11-30T00:18:48.069Z,99126.27
2022-11-30T00:21:15.431Z,99129.69
2022-11-30T00:23:43.623Z,99132.58
2022-11-30T00:26:13.629Z,99135.30
2022-11-30T00:28:41.472Z,99140.91
2022-11-30T00:31:11.250Z,99139.73
2022-11-30T00:33:39.013Z,99140.07
2022-11-30T00:36:13.518Z,99141.24
2022-11-30T00:38:40.164Z,99139.19
2022-11-30T00:41:07.127Z,99138.52
2022-11-30T00:43:33.598Z,99142.22
2022-11-30T00:46:00.801Z,99141.19
2022-11-30T00:48:27.549Z,99142.37
2022-11-30T00:50:54.025Z,99144.55
2022-11-30T00:53:21.348Z,99144.70
2022-11-30T00:55:48.511Z,99143.50
2022-11-30T00:58:15.454Z,99145.04
2022-11-30T01:00:42.807Z,99141.27
2022-11-30T01:03:09.731Z,99141.29
2022-11-30T01:05:36.952Z,99135.67
2022-11-30T01:08:06.159Z,99135.33
2022-11-30T01:10:34.903Z,99141.98
2022-11-30T01:13:02.169Z,99139.14
2022-11-30T01:15:28.812Z,99138.63
2022-11-30T01:17:55.359Z,99137.42
2022-11-30T01:20:22.148Z,99140.48
2022-11-30T01:22:48.643Z,99137.43
2022-11-30T01:25:15.285Z,99134.52
2022-11-30T01:27:41.820Z,99133.97
2022-11-30T01:30:08.978Z,99134.63
2022-11-30T01:32:35.388Z,99134.79
2022-11-30T01:35:02.061Z,99133.42
2022-11-30T01:37:29.220Z,99133.94
2022-11-30T01:39:55.755Z,99139.73
2022-11-30T01:42:22.498Z,99141.29
2022-11-30T01:44:53.850Z,99146.23
2022-11-30T01:47:25.921Z,99144.04
2022-11-30T01:50:01.269Z,99146.24
2022-11-30T01:52:40.204Z,99147.95
2022-11-30T01:55:29.551Z,99149.14
2022-11-30T01:58:10.143Z,99151.55
2022-11-30T02:00:36.767Z,99152.23
2022-11-30T02:03:09.473Z,99150.19
2022-11-30T02:05:38.164Z,99151.55
2022-11-30T02:08:06.543Z,99159.38
2022-11-30T02:10:37.951Z,99161.75
2022-11-30T02:13:32.195Z,99158.86
2022-11-30T02:16:06.855Z,99159.73
2022-11-30T02:19:07.556Z,99159.20
2022-11-30T02:22:00.825Z,99165.19
2022-11-30T02:25:10.373Z,99169.64
2022-11-30T02:28:11.426Z,99168.94
2022-11-30T02:30:43.232Z,99173.80
2022-11-30T02:33:17.174Z,99171.17
2022-11-30T02:35:53.061Z,99173.02
2022-11-30T02:38:23.200Z,99176.38
2022-11-30T02:40:49.822Z,99174.96
2022-11-30T02:43:18.338Z,99175.13
2022-11-30T02:45:53.866Z,99179.39
2022-11-30T02:48:29.206Z,99176.67
2022-11-30T02:51:00.790Z,99178.73
2022-11-30T02:53:27.132Z,99179.39
2022-11-30T02:55:54.763Z,99180.42
2022-11-30T02:58:22.231Z,99179.95
2022-11-30T03:00:48.762Z,99184.39
2022-11-30T03:03:15.303Z,99185.75
2022-11-30T03:05:41.844Z,99183.04
2022-11-30T03:08:08.356Z,99180.86
2022-11-30T03:10:34.922Z,99182.73
2022-11-30T03:13:01.564Z,99181.38
2022-11-30T03:15:28.411Z,99184.12
2022-11-30T03:17:55.174Z,99182.09
2022-11-30T03:20:21.701Z,99185.69
2022-11-30T03:22:48.138Z,99192.52
2022-11-30T03:25:14.783Z,99190.67
2022-11-30T03:27:41.429Z,99193.20
2022-11-30T03:30:08.543Z,99191.13
2022-11-30T03:32:35.022Z,99194.86
2022-11-30T03:35:01.863Z,99200.79
2022-11-30T03:37:28.452Z,99203.69
2022-11-30T03:39:58.209Z,99206.23
2022-11-30T03:42:25.353Z,99205.71
2022-11-30T03:44:51.914Z,99206.55
2022-11-30T03:47:18.455Z,99210.40
2022-11-30T03:49:44.989Z,99213.09
2022-11-30T03:52:11.530Z,99215.11
2022-11-30T03:54:38.029Z,99216.29
2022-11-30T03:57:04.507Z,99214.21
2022-11-30T03:59:31.046Z,99212.84
2022-11-30T04:01:57.510Z,99213.33
2022-11-30T04:04:24.124Z,99217.42
2022-11-30T04:06:50.681Z,99212.85
2022-11-30T04:09:17.207Z,99214.41
2022-11-30T04:11:43.746Z,99213.41
2022-11-30T04:14:10.387Z,99214.76
2022-11-30T04:16:36.813Z,99212.22
2022-11-30T04:19:03.363Z,99214.80
2022-11-30T04:21:30.212Z,99219.38
2022-11-30T04:23:56.653Z,99219.52
2022-11-30T04:26:23.195Z,99219.66
2022-11-30T04:28:49.730Z,99217.81
2022-11-30T04:31:16.312Z,99220.86
2022-11-30T04:33:42.892Z,99222.03
2022-11-30T04:36:18.576Z,99223.38
2022-11-30T04:38:45.412Z,99224.36
2022-11-30T04:41:12.266Z,99227.25
2022-11-30T04:43:38.799Z,99236.78
2022-11-30T04:46:06.373Z,99235.56
2022-11-30T04:48:33.516Z,99236.04
2022-11-30T04:51:02.418Z,99232.95
2022-11-30T04:53:29.161Z,99238.66
2022-11-30T04:55:55.700Z,99247.79
2022-11-30T04:58:22.241Z,99249.81
2022-11-30T05:00:48.986Z,99247.45
2022-11-30T05:03:15.448Z,99246.95
2022-11-30T05:05:41.864Z,99250.98
2022-11-30T05:08:09.529Z,99247.75
2022-11-30T05:10:36.168Z,99242.98
2022-11-30T05:13:02.713Z,99239.77
2022-11-30T05:15:29.250Z,99235.87
2022-11-30T05:17:59.259Z,99240.32
2022-11-30T05:20:25.947Z,99242.40
2022-11-30T05:22:52.400Z,99240.70
2022-11-30T05:25:18.894Z,99243.75
2022-11-30T05:27:45.379Z,99243.73
2022-11-30T05:30:12.710Z,99242.49
2022-11-30T05:32:39.233Z,99248.27
2022-11-30T05:35:06.081Z,99250.98
2022-11-30T05:37:32.727Z,99249.97
2022-11-30T05:39:59.266Z,99248.23
2022-11-30T05:42:26.252Z,99248.39
2022-11-30T05:44:52.860Z,99247.75
2022-11-30T05:47:19.400Z,99249.11
2022-11-30T05:49:45.891Z,99251.02
2022-11-30T05:52:12.626Z,99254.27
2022-11-30T05:54:39.227Z,99259.27
2022-11-30T05:57:05.977Z,99262.36
2022-11-30T05:59:32.642Z,99258.83
2022-11-30T06:01:59.827Z,99255.41
2022-11-30T06:04:26.412Z,99254.45
2022-11-30T06:06:52.951Z,99260.09
2022-11-30T06:09:19.497Z,99263.80
2022-11-30T06:11:45.942Z,99260.22
2022-11-30T06:14:12.575Z,99260.22
2022-11-30T06:16:39.877Z,99261.92
2022-11-30T06:19:06.887Z,99265.70
2022-11-30T06:21:33.630Z,99260.78
2022-11-30T06:24:00.090Z,99254.51
2022-11-30T06:26:26.622Z,99257.94
2022-11-30T06:28:53.250Z,99257.65
2022-11-30T06:31:19.904Z,99260.23
2022-11-30T06:33:46.842Z,99259.74
2022-11-30T06:36:13.420Z,99262.88
2022-11-30T06:38:40.021Z,99259.02
2022-11-30T06:41:09.948Z,99258.54
2022-11-30T06:43:37.821Z,99258.19
2022-11-30T06:46:05.844Z,99262.41
2022-11-30T06:48:33.165Z,99265.64
2022-11-30T06:50:59.784Z,99267.48
2022-11-30T06:53:27.345Z,99272.58
2022-11-30T06:55:53.995Z,99275.95
2022-11-30T06:58:20.771Z,99276.80
2022-11-30T07:00:47.735Z,99280.52
2022-11-30T07:03:14.635Z,99284.25
2022-11-30T07:05:45.958Z,99285.07
2022-11-30T07:08:14.778Z,99285.23
2022-11-30T07:10:42.957Z,99288.96
2022-11-30T07:13:14.003Z,99288.33
2022-11-30T07:15:41.586Z,99284.80
2022-11-30T07:18:09.350Z,99288.59
2022-11-30T07:20:36.999Z,99291.03
2022-11-30T07:23:04.279Z,99290.36
2022-11-30T07:25:30.694Z,99292.06
2022-11-30T07:27:57.237Z,99292.91
2022-11-30T07:30:23.739Z,99290.05
2022-11-30T07:32:50.217Z,99294.15
2022-11-30T07:35:16.859Z,99293.33
2022-11-30T07:37:43.549Z,99294.73
2022-11-30T07:40:10.497Z,99294.89
2022-11-30T07:42:36.971Z,99298.67
2022-11-30T07:45:03.629Z,99299.92
2022-11-30T07:47:30.165Z,99298.46
2022-11-30T07:49:56.755Z,99295.44
2022-11-30T07:52:23.348Z,99292.58
2022-11-30T07:54:50.068Z,99292.76
2022-11-30T07:57:16.836Z,99298.23
2022-11-30T07:59:43.377Z,99299.66
2022-11-30T08:02:10.917Z,99299.36
2022-11-30T08:04:37.660Z,99299.88
2022-11-30T08:07:04.106Z,99298.85
2022-11-30T08:09:30.554Z,99300.59
2022-11-30T08:11:57.048Z,99299.59
2022-11-30T08:14:23.478Z,99301.64
2022-11-30T08:16:49.960Z,99302.14
2022-11-30T08:19:16.707Z,99302.86
2022-11-30T08:21:43.143Z,99302.02
2022-11-30T08:24:12.118Z,99307.69
2022-11-30T08:26:38.686Z,99306.83
2022-11-30T08:29:05.301Z,99303.79
2022-11-30T08:31:36.823Z,99303.63
2022-11-30T08:34:10.687Z,99307.21
2022-11-30T08:36:37.728Z,99307.73
2022-11-30T08:39:06.155Z,99309.62
2022-11-30T08:41:34.192Z,99313.39
2022-11-30T08:44:01.349Z,99317.19
2022-11-30T08:46:50.376Z,99315.48
2022-11-30T08:49:23.603Z,99312.61
2022-11-30T08:54:39.835Z,99309.29
2022-11-30T08:57:06.372Z,99305.25
2022-11-30T08:59:33.132Z,99306.31
2022-11-30T09:01:59.667Z,99304.46
2022-11-30T09:04:26.197Z,99311.32
2022-11-30T09:06:52.737Z,99315.10
2022-11-30T09:09:19.280Z,99313.86
2022-11-30T09:11:45.825Z,99315.86
2022-11-30T09:14:12.358Z,99311.56
2022-11-30T09:16:38.902Z,99307.78
2022-11-30T09:19:05.537Z,99313.89
2022-11-30T09:21:32.122Z,99307.56
2022-11-30T09:23:58.613Z,99304.84
2022-11-30T09:26:25.256Z,99305.36
2022-11-30T09:28:53.434Z,99303.98
2022-11-30T09:31:22.509Z,99304.02
2022-11-30T09:33:49.168Z,99300.64
2022-11-30T09:36:18.650Z,99297.93
2022-11-30T09:38:45.941Z,99301.52
2022-11-30T09:41:30.398Z,99298.10
2022-11-30T09:44:29.708Z,99295.20
2022-11-30T09:47:10.386Z,99291.82
2022-11-30T09:49:44.505Z,99293.87
2022-11-30T09:52:17.292Z,99289.06
2022-11-30T09:54:46.572Z,99287.85
2022-11-30T09:57:40.371Z,99289.24
2022-11-30T10:00:14.712Z,99284.67
2022-11-30T10:02:42.249Z,99282.66
2022-11-30T10:05:25.077Z,99283.70
2022-11-30T10:08:11.481Z,99283.39
2022-11-30T10:10:46.933Z,99280.98
2022-11-30T10:13:30.505Z,99276.03
2022-11-30T10:16:22.223Z,99274.33
2022-11-30T10:19:08.294Z,99274.66
2022-11-30T10:21:37.376Z,99275.00
2022-11-30T10:24:29.847Z,99272.42
2022-11-30T10:26:58.449Z,99275.35
2022-11-30T10:29:32.158Z,99274.84
2022-11-30T10:32:02.157Z,99273.14
2022-11-30T10:34:36.174Z,99271.77
2022-11-30T10:37:17.795Z,99265.46
2022-11-30T10:39:55.369Z,99262.56
2022-11-30T10:42:32.648Z,99261.52
2022-11-30T10:45:05.742Z,99257.40
2022-11-30T10:47:34.881Z,99257.58
2022-11-30T10:50:01.451Z,99261.15
2022-11-30T10:52:52.303Z,99259.61
2022-11-30T10:55:22.424Z,99257.09
2022-11-30T10:57:55.919Z,99259.30
2022-11-30T11:00:22.421Z,99255.55
2022-11-30T11:02:50.326Z,99259.63
2022-11-30T11:05:25.469Z,99258.43
2022-11-30T11:07:51.987Z,99260.80
2022-11-30T11:10:28.891Z,99257.72
2022-11-30T11:12:55.942Z,99249.36
2022-11-30T11:15:27.187Z,99243.77
2022-11-30T11:18:12.162Z,99237.32
2022-11-30T11:20:39.647Z,99237.16
2022-11-30T11:23:06.273Z,99236.14
2022-11-30T11:25:37.727Z,99231.55
2022-11-30T11:28:06.413Z,99232.08
2022-11-30T11:30:33.483Z,99232.92
2022-11-30T11:33:04.106Z,99237.36
2022-11-30T11:35:41.141Z,99239.25
2022-11-30T11:38:25.129Z,99233.80
2022-11-30T11:41:06.222Z,99240.44
2022-11-30T11:43:37.542Z,99241.11
2022-11-30T11:46:12.672Z,99238.53
2022-11-30T11:48:45.456Z,99238.20
2022-11-30T11:51:12.132Z,99239.91
2022-11-30T11:53:53.655Z,99241.11
2022-11-30T11:56:32.805Z,99243.31
2022-11-30T11:59:02.773Z,99245.02
2022-11-30T12:01:45.065Z,99245.52
2022-11-30T12:04:33.148Z,99240.04
2022-11-30T12:07:04.436Z,99242.58
2022-11-30T12:09:37.071Z,99241.20
2022-11-30T12:12:03.801Z,99243.25
2022-11-30T12:14:32.532Z,99238.14
2022-11-30T12:17:39.036Z,99241.38
2022-11-30T12:20:11.960Z,99245.98
2022-11-30T12:22:50.733Z,99247.16
2022-11-30T12:25:49.958Z,99248.02
2022-11-30T12:28:39.571Z,99243.09
2022-11-30T12:31:16.294Z,99247.52
2022-11-30T12:34:01.528Z,99245.14
2022-11-30T12:36:40.156Z,99248.05
2022-11-30T12:39:22.524Z,99244.14
2022-11-30T12:42:02.035Z,99246.72
2022-11-30T12:44:57.491Z,99247.22
2022-11-30T12:48:04.923Z,99245.34
2022-11-30T12:51:02.290Z,99249.58
2022-11-30T12:54:07.214Z,99252.27
2022-11-30T12:56:37.038Z,99251.39
2022-11-30T12:59:39.793Z,99246.11
2022-11-30T13:02:31.162Z,99248.84
2022-11-30T13:05:22.794Z,99252.40
2022-11-30T13:07:56.219Z,99252.05
2022-11-30T13:10:30.302Z,99253.73
2022-11-30T13:12:57.559Z,99255.42
2022-11-30T13:15:27.728Z,99255.59
2022-11-30T13:17:55.668Z,99248.92
2022-11-30T13:20:50.519Z,99245.16
2022-11-30T13:23:26.936Z,99243.47
2022-11-30T13:26:08.257Z,99241.27
2022-11-30T13:28:41.317Z,99236.98
2022-11-30T13:31:28.654Z,99239.55
2022-11-30T13:33:55.190Z,99238.16
2022-11-30T13:36:38.542Z,99240.39
2022-11-30T13:39:14.981Z,99239.38
2022-11-30T13:41:43.792Z,99240.75
2022-11-30T13:44:29.664Z,99242.62
2022-11-30T13:46:56.961Z,99238.70
2022-11-30T13:49:28.614Z,99236.82
2022-11-30T13:52:20.906Z,99234.74
2022-11-30T13:54:48.992Z,99238.14
2022-11-30T13:57:17.489Z,99236.92
2022-11-30T13:59:49.690Z,99244.56
2022-11-30T14:02:31.152Z,99246.41
2022-11-30T14:05:16.226Z,99245.88
2022-11-30T14:08:06.672Z,99247.91
2022-11-30T14:10:47.704Z,99248.55
2022-11-30T14:13:14.154Z,99248.54
2022-11-30T14:15:40.693Z,99247.52
2022-11-30T14:18:10.318Z,99244.31
2022-11-30T14:20:42.466Z,99247.03
2022-11-30T14:23:14.766Z,99243.11
2022-11-30T14:25:47.932Z,99240.55
2022-11-30T14:28:31.783Z,99238.52
2022-11-30T14:31:00.015Z,99237.63
2022-11-30T14:33:53.565Z,99239.00
2022-11-30T14:36:22.445Z,99242.55
2022-11-30T14:38:48.949Z,99244.25
2022-11-30T14:41:21.091Z,99241.70
2022-11-30T14:44:04.452Z,99242.92
2022-11-30T14:46:32.298Z,99245.14
2022-11-30T14:49:20.085Z,99248.22
2022-11-30T14:51:50.137Z,99248.38
2022-11-30T14:54:27.296Z,99244.96
2022-11-30T14:57:02.621Z,99247.69
2022-11-30T14:59:38.215Z,99247.49
2022-11-30T15:02:11.851Z,99251.41
2022-11-30T15:04:38.541Z,99252.27
2022-11-30T15:07:12.143Z,99249.02
2022-11-30T15:09:38.782Z,99256.17
2022-11-30T15:12:05.549Z,99253.98
2022-11-30T15:14:32.072Z,99255.15
2022-11-30T15:16:58.604Z,99256.02
2022-11-30T15:19:31.072Z,99253.29
2022-11-30T15:21:59.063Z,99255.49
2022-11-30T15:24:27.021Z,99255.84
2022-11-30T15:27:11.211Z,99253.63
2022-11-30T15:29:41.304Z,99254.14
2022-11-30T15:32:16.295Z,99255.50
2022-11-30T15:34:56.077Z,99258.39
2022-11-30T15:37:31.945Z,99260.10
2022-11-30T15:40:00.883Z,99264.02
2022-11-30T15:42:33.009Z,99264.70
2022-11-30T15:45:22.236Z,99261.63
2022-11-30T15:47:49.740Z,99264.86
2022-11-30T15:50:28.391Z,99270.45
2022-11-30T15:53:22.755Z,99273.88
2022-11-30T15:55:52.264Z,99271.30
2022-11-30T15:58:40.472Z,99273.67
2022-11-30T16:01:11.431Z,99275.71
2022-11-30T16:03:56.702Z,99274.52
2022-11-30T16:06:28.896Z,99277.08
2022-11-30T16:08:57.316Z,99269.07
2022-11-30T16:11:24.130Z,99275.55
2022-11-30T16:13:50.650Z,99275.75
2022-11-30T16:16:21.699Z,99280.52
2022-11-30T16:18:48.550Z,99276.26
2022-11-30T16:21:18.391Z,99278.61
2022-11-30T16:23:46.061Z,99278.95
2022-11-30T16:26:36.060Z,99278.09
2022-11-30T16:29:01.548Z,99279.95
2022-11-30T16:31:28.202Z,99281.65
2022-11-30T16:33:54.759Z,99281.81
2022-11-30T16:36:21.576Z,99277.73
2022-11-30T16:38:49.837Z,99281.65
2022-11-30T16:41:22.533Z,99280.45
2022-11-30T16:43:51.569Z,99281.82
2022-11-30T16:46:24.511Z,99287.80
2022-11-30T16:48:51.662Z,99288.80
2022-11-30T16:51:27.115Z,99288.63
2022-11-30T16:53:54.166Z,99286.44
2022-11-30T16:56:20.701Z,99285.57
2022-11-30T16:58:47.653Z,99283.56
2022-11-30T17:01:18.591Z,99282.37
2022-11-30T17:03:48.440Z,99285.25
2022-11-30T17:06:20.534Z,99288.32
2022-11-30T17:08:48.093Z,99287.16
2022-11-30T17:11:27.590Z,99287.50
2022-11-30T17:13:54.130Z,99292.42
2022-11-30T17:16:20.604Z,99292.95
2022-11-30T17:18:47.319Z,99295.67
2022-11-30T17:21:20.821Z,99298.23
2022-11-30T17:23:47.356Z,99302.17
2022-11-30T17:26:13.999Z,99302.17
2022-11-30T17:28:40.844Z,99303.02
2022-11-30T17:31:08.235Z,99302.84
2022-11-30T17:33:35.251Z,99301.14
2022-11-30T17:36:04.537Z,99301.16
2022-11-30T17:38:32.639Z,99301.50
2022-11-30T17:40:59.151Z,99300.15
2022-11-30T17:43:25.821Z,99301.17
2022-11-30T17:45:52.425Z,99300.51
2022-11-30T17:48:18.997Z,99297.30
2022-11-30T17:50:45.537Z,99293.06
2022-11-30T17:53:15.439Z,99297.35
2022-11-30T17:55:45.173Z,99299.27
2022-11-30T17:58:11.668Z,99300.63
2022-11-30T18:00:38.251Z,99302.50
2022-11-30T18:03:04.952Z,99303.86
2022-11-30T18:05:32.459Z,99304.58
2022-11-30T18:07:59.376Z,99309.34
2022-11-30T18:10:25.949Z,99308.14
2022-11-30T18:12:52.589Z,99310.70
2022-11-30T18:15:19.125Z,99315.97
2022-11-30T18:17:45.667Z,99312.73
2022-11-30T18:20:12.828Z,99311.22
2022-11-30T18:22:39.358Z,99313.27
2022-11-30T18:25:06.410Z,99313.80
2022-11-30T18:27:32.952Z,99312.61
2022-11-30T18:29:59.490Z,99311.44
2022-11-30T18:32:26.025Z,99305.33
2022-11-30T18:34:52.568Z,99302.09
2022-11-30T18:37:19.108Z,99306.36
2022-11-30T18:39:45.559Z,99307.73
2022-11-30T18:42:12.082Z,99310.12
2022-11-30T18:44:38.603Z,99308.23
2022-11-30T18:47:05.044Z,99311.83
2022-11-30T18:49:31.599Z,99316.45
2022-11-30T18:51:58.087Z,99316.11
2022-11-30T18:54:24.617Z,99316.81
2022-11-30T18:56:51.625Z,99314.55
2022-11-30T18:59:18.685Z,99315.73
2022-11-30T19:01:45.302Z,99313.34
2022-11-30T19:04:11.913Z,99317.40
2022-11-30T19:06:40.302Z,99312.13
2022-11-30T19:09:10.484Z,99310.42
2022-11-30T19:11:38.568Z,99311.44
2022-11-30T19:14:06.108Z,99314.67
2022-11-30T19:16:34.030Z,99315.70
2022-11-30T19:19:05.533Z,99317.25
2022-11-30T19:21:32.892Z,99316.58
2022-11-30T19:23:59.936Z,99318.47
2022-11-30T19:26:27.394Z,99320.86
2022-11-30T19:28:55.267Z,99324.96
2022-11-30T19:31:23.483Z,99328.02
2022-11-30T19:33:52.746Z,99326.99
2022-11-30T19:36:27.586Z,99328.88
2022-11-30T19:38:55.204Z,99326.46
2022-11-30T19:41:22.107Z,99327.14
2022-11-30T19:43:59.610Z,99326.27
2022-11-30T19:46:29.919Z,99317.57
2022-11-30T19:48:58.174Z,99317.23
2022-11-30T19:51:24.597Z,99317.91
2022-11-30T19:53:51.091Z,99320.30
2022-11-30T19:56:17.920Z,99319.61
2022-11-30T19:58:46.005Z,99320.98
2022-11-30T20:01:13.941Z,99322.86
2022-11-30T20:03:40.914Z,99323.56
2022-11-30T20:06:07.762Z,99324.41
2022-11-30T20:08:34.400Z,99319.30
2022-11-30T20:11:00.818Z,99321.70
2022-11-30T20:13:30.551Z,99322.38
2022-11-30T20:15:57.054Z,99323.05
2022-11-30T20:18:23.735Z,99324.27
2022-11-30T20:20:50.213Z,99325.48
2022-11-30T20:23:16.811Z,99319.17
2022-11-30T20:25:43.452Z,99320.88
2022-11-30T20:28:12.720Z,99318.02
2022-11-30T20:30:39.669Z,99319.05
2022-11-30T20:33:06.246Z,99323.64
2022-11-30T20:35:35.244Z,99320.95
2022-11-30T20:38:01.785Z,99320.42
2022-11-30T20:40:28.403Z,99319.05
2022-11-30T20:42:54.826Z,99318.20
2022-11-30T20:45:21.302Z,99311.73
2022-11-30T20:47:47.838Z,99317.86
2022-11-30T20:50:18.407Z,99314.80
2022-11-30T20:52:44.910Z,99311.21
2022-11-30T20:55:11.413Z,99309.34
2022-11-30T20:57:37.879Z,99311.21
2022-11-30T21:00:08.903Z,99313.43
2022-11-30T21:02:39.425Z,99311.55
2022-11-30T21:05:06.719Z,99309.48
2022-11-30T21:07:33.303Z,99312.40
2022-11-30T21:09:59.850Z,99314.79
2022-11-30T21:12:26.529Z,99312.75
2022-11-30T21:14:53.082Z,99311.40
2022-11-30T21:17:19.506Z,99308.67
2022-11-30T21:19:46.058Z,99307.11
2022-11-30T21:22:12.598Z,99309.34
2022-11-30T21:24:39.140Z,99311.53
2022-11-30T21:27:05.777Z,99311.02
2022-11-30T21:29:32.274Z,99310.17
2022-11-30T21:31:58.751Z,99311.20
2022-11-30T21:34:25.497Z,99314.44
2022-11-30T21:36:52.042Z,99317.52
2022-11-30T21:39:18.678Z,99324.31
2022-11-30T21:41:45.358Z,99318.02
2022-11-30T21:44:14.524Z,99321.42
2022-11-30T21:46:42.130Z,99319.02
2022-11-30T21:49:08.826Z,99315.63
2022-11-30T21:51:36.147Z,99317.66
2022-11-30T21:54:05.182Z,99315.10
2022-11-30T21:56:34.700Z,99315.80
2022-11-30T21:59:01.844Z,99309.65
2022-11-30T22:01:34.222Z,99308.12
2022-11-30T22:04:03.161Z,99314.29
2022-11-30T22:06:31.735Z,99314.11
2022-11-30T22:09:00.082Z,99314.47
2022-11-30T22:11:26.732Z,99312.26
2022-11-30T22:13:54.521Z,99316.69
2022-11-30T22:16:23.261Z,99316.52
2022-11-30T22:18:53.790Z,99316.20
2022-11-30T22:21:23.722Z,99313.46
2022-11-30T22:23:56.405Z,99311.08
2022-11-30T22:26:25.682Z,99310.05
2022-11-30T22:28:54.028Z,99311.59
2022-11-30T22:31:22.735Z,99311.08
2022-11-30T22:33:49.666Z,99305.96
2022-11-30T22:36:22.250Z,99310.06
2022-11-30T22:38:54.347Z,99310.92
2022-11-30T22:41:21.109Z,99310.75
2022-11-30T22:43:47.712Z,99305.64
2022-11-30T22:46:20.332Z,99302.23
2022-11-30T22:48:47.446Z,99297.32
2022-11-30T22:51:18.376Z,99294.41
2022-11-30T22:53:45.661Z,99289.81
2022-11-30T22:56:15.165Z,99288.79
2022-11-30T22:58:42.518Z,99292.37
2022-11-30T23:01:09.133Z,99285.23
2022-11-30T23:03:35.790Z,99286.41
2022-11-30T23:06:03.258Z,99283.52
2022-11-30T23:08:30.334Z,99288.27
2022-11-30T23:10:58.384Z,99286.58
2022-11-30T23:13:25.647Z,99285.38
2022-11-30T23:15:52.736Z,99286.40
2022-11-30T23:18:19.245Z,99285.55
2022-11-30T23:20:46.088Z,99283.84
2022-11-30T23:23:12.731Z,99279.92
2022-11-30T23:25:39.270Z,99280.27
2022-11-30T23:28:05.722Z,99280.95
2022-11-30T23:30:32.818Z,99279.23
2022-11-30T23:32:59.303Z,99278.92
2022-11-30T23:35:25.913Z,99277.22
2022-11-30T23:37:52.486Z,99270.90
2022-11-30T23:40:19.449Z,99269.55
2022-11-30T23:42:46.146Z,99269.70
2022-11-30T23:45:12.851Z,99263.55
2022-11-30T23:47:39.286Z,99259.61
2022-11-30T23:50:06.785Z,99258.27
2022-11-30T23:52:33.361Z,99264.09
2022-11-30T23:55:00.019Z,99264.59
2022-11-30T23:57:26.561Z,99265.80
2022-11-30T23:59:53.100Z,99268.02
